Pagina principală
METAR-TAF:

METAR-TAF

Aeroporturi :

Calabar, Nigeria

Latitudine: 04-58N, longitudine: 008-21E, elevație: 63 m

Observații meteo curente

Raportul a fost făcut în urmă cu 1 oră și 44 de minute, la 16:00 UTC
Vânt 10 kt de la Vest
Temperatură 29°C
Umiditate 84%
Presiune 1010 hPa
Vizibilitate: 5000 m
Nori fragmentați la o înălțime de 1100 picior
Nori puțini la o înălțime de 2000 picior, Cumulonimbus.
burniță,

METAR: DNCA 131600Z 27010KT 5000 DZ BKN011 FEW020CB 29/26 Q1010

Ora: 18:44 (17:44 UTC)


TAF: lipsă

Observații și prognoze meteo pentru peste 4.000 de aeroporturi (rapoarte METAR și TAF).

Stațiile disponibile sunt reprezentate pe hartă prin puncte galbene și roșii.

Țineți indicatorul mouse-ului pe punctul dorit pentru a vedea denumirea stației.

Apoi, faceți clic pentru a vedea observațiile și prognozele meteorologice.

Pentru a schimba harta: Pentru mărire, faceți clic pe butoanele verzi cu cruce neagră; pentru micșorare, pe butonul verde cu o liniuță; pentru hărți învecinate, pe săgețile verzi.


METAR-TAF: